Time;durP1;ratioP1;P1;durP2;ratioP2;P2;SDS_P1;SDS_P2;PMS_P1;PMS_P2;Temp;Humidity;BMP_temperature;BMP_pressure;BME280_temperature;BME280_humidity;BME280_pressure;Samples;Min_cycle;Max_cycle;Signal;HPM_P1;HPM_P2
2021/04/02 05:11:12;;;;;;;12.97;12.27;;;24.60;86.80;;;;;;4091466;34;774613;-38
2021/04/02 05:13:41;;;;;;;14.70;13.70;;;24.60;86.80;;;;;;4115190;34;20281;-38
2021/04/02 05:16:10;;;;;;;13.37;12.47;;;24.60;86.80;;;;;;4116415;34;20438;-37
2021/04/02 05:18:37;;;;;;;13.77;12.90;;;24.60;86.80;;;;;;4116000;34;20503;-37
2021/04/02 05:21:05;;;;;;;12.93;12.13;;;24.40;70.60;;;;;;4103434;34;20449;-37
2021/04/02 05:23:31;;;;;;;13.23;12.43;;;24.00;62.10;;;;;;4116438;34;20413;-36
2021/04/02 05:25:58;;;;;;;14.20;13.33;;;23.40;59.10;;;;;;4116839;34;20407;-36
2021/04/02 05:28:27;;;;;;;13.60;12.77;;;22.90;58.50;;;;;;4115418;34;20433;-36
2021/04/02 05:30:54;;;;;;;13.37;12.47;;;22.40;59.00;;;;;;4116876;34;20416;-37
2021/04/02 05:33:24;;;;;;;14.23;13.33;;;22.30;64.00;;;;;;4116505;34;20400;-37
2021/04/02 05:35:51;;;;;;;12.77;12.00;;;22.50;69.40;;;;;;4116896;34;20404;-37
2021/04/02 05:38:19;;;;;;;12.30;11.50;;;22.80;71.90;;;;;;4116926;34;20432;-38
2021/04/02 05:40:49;;;;;;;11.60;10.90;;;23.10;73.20;;;;;;4116617;34;20843;-37
2021/04/02 05:43:35;;;;;;;12.40;11.70;;;23.20;74.20;;;;;;4116917;34;20541;-37
2021/04/02 05:46:06;;;;;;;13.07;12.10;;;23.40;74.90;;;;;;4116651;34;20435;-37
2021/04/02 05:48:36;;;;;;;11.57;10.80;;;23.60;75.40;;;;;;4114774;34;20517;-37
2021/04/02 05:51:04;;;;;;;11.50;10.90;;;23.70;75.70;;;;;;4114748;34;20393;-37
2021/04/02 05:53:37;;;;;;;11.80;11.20;;;23.80;76.00;;;;;;4115900;34;20432;-37
2021/04/02 05:56:05;;;;;;;11.67;10.80;;;23.90;76.20;;;;;;4103734;34;20396;-37
2021/04/02 05:58:36;;;;;;;11.17;10.53;;;24.00;76.40;;;;;;4116409;34;20841;-38
2021/04/02 06:01:02;;;;;;;11.43;10.60;;;24.10;76.50;;;;;;4116009;34;20530;-38
2021/04/02 06:03:33;;;;;;;11.23;10.63;;;24.20;76.70;;;;;;4115934;34;20409;-39
2021/04/02 06:06:00;;;;;;;11.60;10.90;;;24.20;76.80;;;;;;4116499;34;20772;-39
2021/04/02 06:08:28;;;;;;;11.87;11.07;;;24.30;76.90;;;;;;4114612;34;20435;-38
2021/04/02 06:10:54;;;;;;;11.73;10.90;;;24.30;77.10;;;;;;4115439;34;20470;-38
2021/04/02 06:13:22;;;;;;;11.50;10.90;;;24.40;77.10;;;;;;4116247;34;20438;-38
2021/04/02 06:15:49;;;;;;;11.70;10.90;;;24.40;77.10;;;;;;4115955;34;20433;-38
2021/04/02 06:18:16;;;;;;;11.07;10.33;;;24.50;77.30;;;;;;4116820;34;20507;-38
2021/04/02 06:20:44;;;;;;;11.27;10.50;;;24.60;77.40;;;;;;4117016;34;20404;-38
2021/04/02 06:23:13;;;;;;;11.57;10.97;;;24.60;77.50;;;;;;4116661;34;20414;-38
2021/04/02 06:25:46;;;;;;;11.37;10.70;;;24.60;77.50;;;;;;4116534;34;21106;-38
2021/04/02 06:28:17;;;;;;;12.07;11.17;;;24.70;77.50;;;;;;4116185;34;20387;-38
2021/04/02 06:30:45;;;;;;;11.50;10.90;;;24.70;77.60;;;;;;4116753;34;20523;-38
2021/04/02 06:33:15;;;;;;;11.07;10.47;;;24.80;77.70;;;;;;4117085;34;20409;-39
2021/04/02 06:35:44;;;;;;;11.53;10.93;;;24.80;77.70;;;;;;4117370;34;20823;-39
2021/04/02 06:38:12;;;;;;;11.47;10.73;;;24.80;77.70;;;;;;4116232;34;20393;-39
2021/04/02 06:40:39;;;;;;;10.73;10.23;;;24.80;77.80;;;;;;4115845;34;20407;-39
2021/04/02 06:43:06;;;;;;;10.90;10.40;;;24.80;77.80;;;;;;4115785;34;20431;-39
2021/04/02 06:45:34;;;;;;;11.30;10.60;;;24.90;78.00;;;;;;4104308;34;20723;-39
2021/04/02 06:48:16;;;;;;;11.77;10.93;;;24.80;78.00;;;;;;4114741;34;20517;-39
2021/04/02 06:50:44;;;;;;;10.97;10.47;;;24.80;78.20;;;;;;4115492;34;20432;-39
2021/04/02 06:53:12;;;;;;;10.57;9.87;;;24.80;78.30;;;;;;4115495;34;20715;-39
2021/04/02 06:55:40;;;;;;;10.50;10.00;;;24.80;78.50;;;;;;4115497;34;20491;-39
2021/04/02 06:58:10;;;;;;;10.67;10.07;;;24.80;78.60;;;;;;4115614;34;20403;-39
2021/04/02 07:00:40;;;;;;;11.37;10.77;;;24.80;78.70;;;;;;4114937;34;20419;-38
2021/04/02 07:03:08;;;;;;;11.20;10.53;;;24.80;78.80;;;;;;4114652;34;20415;-38
2021/04/02 07:05:37;;;;;;;10.97;10.40;;;24.80;78.90;;;;;;4114340;34;20403;-39
2021/04/02 07:08:06;;;;;;;10.80;10.13;;;24.80;79.10;;;;;;4114161;34;20403;-38
2021/04/02 07:10:36;;;;;;;10.73;10.13;;;24.80;79.30;;;;;;4115032;34;20496;-38
2021/04/02 07:13:05;;;;;;;11.40;10.80;;;24.80;79.40;;;;;;4115157;34;20889;-38
2021/04/02 07:15:33;;;;;;;10.97;10.37;;;24.80;79.50;;;;;;4115933;34;20399;-37
2021/04/02 07:18:02;;;;;;;10.90;10.40;;;24.80;79.70;;;;;;4116581;34;20416;-38
2021/04/02 07:20:29;;;;;;;11.53;10.93;;;24.70;79.90;;;;;;4093680;34;20535;-38
2021/04/02 07:23:01;;;;;;;10.80;10.20;;;24.60;80.10;;;;;;4115590;34;20794;-38
2021/04/02 07:28:59;;;;;;;11.20;10.50;;;24.60;80.50;;;;;;4112198;34;20421;-38
2021/04/02 07:31:27;;;;;;;11.73;10.63;;;24.60;80.80;;;;;;4115378;34;20443;-38
2021/04/02 07:33:54;;;;;;;10.80;9.80;;;24.50;81.00;;;;;;4115582;34;20427;-38
2021/04/02 07:36:21;;;;;;;11.73;11.00;;;24.50;81.30;;;;;;4114944;34;20435;-38
2021/04/02 07:38:52;;;;;;;12.80;12.10;;;24.50;81.50;;;;;;4114123;34;20422;-39
2021/04/02 07:41:20;;;;;;;11.97;10.80;;;24.40;76.40;;;;;;4113903;34;20399;-38
2021/04/02 07:43:51;;;;;;;11.33;10.70;;;24.40;75.30;;;;;;4114475;34;20658;-38
2021/04/02 07:46:24;;;;;;;11.17;10.40;;;24.40;79.60;;;;;;4113927;34;20436;-38
2021/04/02 07:49:01;;;;;;;11.50;10.70;;;24.40;80.20;;;;;;4113522;34;20427;-38
2021/04/02 07:51:41;;;;;;;10.90;10.10;;;24.30;81.30;;;;;;4113789;34;20445;-38
2021/04/02 07:54:14;;;;;;;11.23;10.30;;;24.40;81.00;;;;;;4114454;34;21185;-38
2021/04/02 07:56:41;;;;;;;10.67;9.87;;;24.30;81.20;;;;;;4102990;34;20412;-38
2021/04/02 07:59:10;;;;;;;11.20;10.20;;;24.30;81.30;;;;;;4114249;34;20400;-38
2021/04/02 08:01:38;;;;;;;10.70;9.90;;;24.30;81.50;;;;;;4115386;34;20411;-38
2021/04/02 08:04:05;;;;;;;10.50;9.73;;;24.30;81.80;;;;;;4115443;34;20430;-37
2021/04/02 08:06:37;;;;;;;12.07;10.97;;;24.30;81.90;;;;;;4114736;34;20420;-37
2021/04/02 08:09:07;;;;;;;15.23;10.40;;;24.20;82.00;;;;;;4114675;34;20435;-37
2021/04/02 08:11:37;;;;;;;10.77;9.87;;;24.30;82.10;;;;;;4115318;34;20409;-37
2021/04/02 08:14:08;;;;;;;11.37;10.50;;;24.30;82.40;;;;;;4114142;34;20432;-37
2021/04/02 08:16:42;;;;;;;11.80;10.70;;;24.30;82.40;;;;;;4114684;34;20470;-37
2021/04/02 08:19:12;;;;;;;10.90;10.17;;;24.40;82.60;;;;;;4115852;34;20794;-38
2021/04/02 08:21:42;;;;;;;10.50;9.80;;;24.40;82.60;;;;;;4114766;34;20395;-37
2021/04/02 08:24:11;;;;;;;10.83;10.13;;;24.40;82.70;;;;;;4114605;34;20792;-37
2021/04/02 08:26:41;;;;;;;11.17;10.07;;;24.40;82.70;;;;;;4115595;34;20407;-37
2021/04/02 08:29:11;;;;;;;11.60;9.87;;;24.40;82.80;;;;;;4114437;34;20613;-37
2021/04/02 08:31:45;;;;;;;11.53;10.57;;;24.40;82.80;;;;;;4115400;34;20788;-38
2021/04/02 08:34:19;;;;;;;10.60;9.90;;;24.40;82.90;;;;;;4116052;34;20405;-38
2021/04/02 08:36:47;;;;;;;10.80;9.80;;;24.40;83.00;;;;;;4114755;34;20381;-38
2021/04/02 08:39:17;;;;;;;11.10;10.20;;;24.40;83.00;;;;;;4114109;34;20783;-38
2021/04/02 08:41:46;;;;;;;11.73;10.10;;;24.40;79.30;;;;;;4114215;34;20404;-38
2021/04/02 08:44:16;;;;;;;10.87;10.27;;;24.30;81.90;;;;;;4111200;34;20430;-38
2021/04/02 08:46:49;;;;;;;10.93;10.23;;;24.30;82.20;;;;;;4114129;34;20421;-38
2021/04/02 08:49:16;;;;;;;10.43;9.50;;;24.30;82.60;;;;;;4113501;34;20452;-38
2021/04/02 08:51:50;;;;;;;11.50;10.80;;;24.30;82.70;;;;;;4115560;34;20416;-38
2021/04/02 08:54:18;;;;;;;11.13;10.23;;;24.30;82.90;;;;;;4091303;34;20392;-38
2021/04/02 08:56:48;;;;;;;11.30;10.60;;;24.30;83.00;;;;;;4114972;34;20405;-38
2021/04/02 08:59:17;;;;;;;11.10;10.43;;;24.30;83.00;;;;;;4113999;34;20478;-38
2021/04/02 09:01:45;;;;;;;18.63;10.17;;;24.30;83.10;;;;;;4114828;34;20482;-38
2021/04/02 09:04:15;;;;;;;10.73;9.87;;;24.30;83.20;;;;;;4114571;34;20422;-43
2021/04/02 09:06:44;;;;;;;11.90;11.03;;;24.30;83.20;;;;;;4102486;34;20399;-43
2021/04/02 09:09:18;;;;;;;11.37;10.47;;;24.30;83.20;;;;;;4114044;34;20914;-43
2021/04/02 09:11:47;;;;;;;11.93;11.03;;;24.20;83.20;;;;;;4115035;34;20868;-43
2021/04/02 09:14:14;;;;;;;11.10;10.30;;;24.30;83.40;;;;;;4115792;34;20618;-42
2021/04/02 09:16:43;;;;;;;11.73;11.03;;;24.20;83.40;;;;;;4114384;34;20461;-43
2021/04/02 09:19:10;;;;;;;13.50;11.00;;;24.20;83.50;;;;;;4115034;34;20428;-43
2021/04/02 09:21:41;;;;;;;12.20;11.37;;;24.20;83.60;;;;;;4115976;34;20499;-43
2021/04/02 09:24:09;;;;;;;13.23;12.23;;;24.20;84.10;;;;;;4115432;34;20406;-43
2021/04/02 09:26:39;;;;;;;16.63;14.57;;;24.20;84.70;;;;;;4114468;34;20528;-42
2021/04/02 09:29:08;;;;;;;15.53;14.03;;;24.20;85.10;;;;;;4114148;34;20428;-42
2021/04/02 09:31:36;;;;;;;15.07;13.67;;;24.10;85.30;;;;;;4115267;34;20620;-42
2021/04/02 09:34:05;;;;;;;15.27;13.90;;;24.20;85.80;;;;;;4115198;34;20841;-43
2021/04/02 09:36:34;;;;;;;15.00;13.73;;;24.10;86.10;;;;;;4114463;34;20408;-42
2021/04/02 09:39:07;;;;;;;17.33;15.83;;;24.10;86.40;;;;;;4115786;34;20752;-42
2021/04/02 09:41:36;;;;;;;15.93;14.53;;;24.10;86.80;;;;;;4115098;34;20405;-42
2021/04/02 09:44:11;;;;;;;19.63;15.03;;;24.10;87.00;;;;;;4115206;34;20542;-43
2021/04/02 09:46:40;;;;;;;15.67;14.33;;;24.10;87.50;;;;;;4115872;34;20423;-41
2021/04/02 09:49:12;;;;;;;15.73;13.37;;;24.10;87.80;;;;;;4114705;34;20424;-40
2021/04/02 09:51:40;;;;;;;17.10;15.40;;;24.10;88.30;;;;;;4114552;34;20433;-41
2021/04/02 09:54:08;;;;;;;15.83;14.53;;;24.10;88.50;;;;;;4116496;34;20435;-41
2021/04/02 09:56:36;;;;;;;15.40;13.17;;;24.10;88.40;;;;;;4104083;34;20444;-41
2021/04/02 09:59:03;;;;;;;15.60;14.03;;;24.10;88.60;;;;;;4115016;34;20431;-41
2021/04/02 10:01:33;;;;;;;17.17;14.83;;;24.10;88.60;;;;;;4114389;34;20431;-41
2021/04/02 10:04:00;;;;;;;16.63;14.93;;;24.10;88.80;;;;;;4116112;34;20445;-40
2021/04/02 10:06:28;;;;;;;17.13;15.17;;;24.10;88.80;;;;;;4115560;34;20576;-42
2021/04/02 10:08:56;;;;;;;16.03;14.40;;;24.00;88.90;;;;;;4115392;34;20440;-41
2021/04/02 10:11:24;;;;;;;16.97;14.63;;;24.10;89.00;;;;;;4115327;34;20405;-42
2021/04/02 10:13:52;;;;;;;17.23;14.27;;;24.00;89.00;;;;;;4102623;34;20416;-42
2021/04/02 10:16:21;;;;;;;15.43;13.93;;;24.00;89.00;;;;;;4103219;34;20495;-42
2021/04/02 10:18:50;;;;;;;15.07;13.70;;;24.00;89.10;;;;;;4115448;34;20408;-39
2021/04/02 10:21:18;;;;;;;16.20;14.63;;;24.00;89.20;;;;;;4115464;34;20412;-41
2021/04/02 10:23:46;;;;;;;18.77;14.30;;;24.00;89.50;;;;;;4114684;34;20976;-41
2021/04/02 10:26:13;;;;;;;15.63;13.40;;;24.00;89.90;;;;;;4103223;34;20407;-41
2021/04/02 10:28:40;;;;;;;15.03;13.70;;;24.00;90.00;;;;;;4115647;34;20540;-42
2021/04/02 10:31:07;;;;;;;16.40;15.00;;;24.00;90.20;;;;;;4116060;34;20423;-40
2021/04/02 10:33:34;;;;;;;18.77;14.20;;;24.00;90.30;;;;;;4115987;34;20483;-43
2021/04/02 10:36:03;;;;;;;15.47;13.77;;;24.10;90.40;;;;;;4115012;34;20477;-41
2021/04/02 10:38:29;;;;;;;14.73;13.10;;;24.00;90.40;;;;;;4115054;34;20431;-41
2021/04/02 10:40:56;;;;;;;14.80;13.23;;;24.00;90.50;;;;;;4115221;34;20409;-41
2021/04/02 10:43:23;;;;;;;23.00;14.90;;;24.00;90.60;;;;;;4115881;34;20414;-42
2021/04/02 10:45:50;;;;;;;14.53;12.90;;;24.00;90.70;;;;;;4115238;34;20776;-42
2021/04/02 10:48:17;;;;;;;13.53;12.27;;;24.00;90.80;;;;;;4103157;34;20488;-41
2021/04/02 10:50:45;;;;;;;14.20;12.90;;;24.00;90.80;;;;;;4114732;34;20423;-42
2021/04/02 10:53:14;;;;;;;15.97;13.00;;;23.90;90.80;;;;;;4114738;34;20415;-42
2021/04/02 10:55:41;;;;;;;17.93;14.10;;;24.00;90.90;;;;;;4114703;34;20810;-42
2021/04/02 10:58:07;;;;;;;15.20;13.60;;;24.00;90.90;;;;;;4113870;34;20510;-40
2021/04/02 11:00:35;;;;;;;18.73;13.33;;;23.90;90.90;;;;;;4114676;34;20435;-41
2021/04/02 11:03:02;;;;;;;14.80;13.50;;;23.90;90.90;;;;;;4115176;34;20472;-41
2021/04/02 11:05:30;;;;;;;17.20;13.90;;;23.90;90.90;;;;;;4115045;34;20424;-41
2021/04/02 11:07:56;;;;;;;20.73;14.63;;;23.90;91.00;;;;;;4115983;34;20423;-42
2021/04/02 11:10:24;;;;;;;18.20;13.60;;;23.90;91.00;;;;;;4114411;34;20457;-41
2021/04/02 11:12:53;;;;;;;15.57;14.07;;;23.90;91.00;;;;;;4116603;34;20819;-41
2021/04/02 11:15:20;;;;;;;15.23;13.87;;;23.90;91.00;;;;;;4115771;34;20648;-42
2021/04/02 11:17:49;;;;;;;17.33;14.20;;;23.90;91.00;;;;;;4115039;34;20686;-42
2021/04/02 11:20:20;;;;;;;14.90;13.57;;;23.90;91.00;;;;;;4114112;34;20415;-42
2021/04/02 11:22:47;;;;;;;22.40;12.77;;;23.90;91.00;;;;;;4114849;34;20427;-43
2021/04/02 11:25:14;;;;;;;14.83;13.30;;;24.00;91.10;;;;;;4114416;34;20660;-43
2021/04/02 11:27:42;;;;;;;15.67;12.80;;;23.90;91.00;;;;;;4113798;34;20618;-41
2021/04/02 11:30:11;;;;;;;14.60;13.17;;;24.00;91.10;;;;;;4112475;34;20404;-41
2021/04/02 11:32:38;;;;;;;14.00;12.70;;;23.90;91.00;;;;;;4113034;34;20444;-41
2021/04/02 11:35:06;;;;;;;15.23;13.97;;;24.00;91.10;;;;;;4111263;34;20411;-41
2021/04/02 11:37:32;;;;;;;14.67;13.37;;;24.00;91.00;;;;;;4112829;34;20432;-40
2021/04/02 11:39:59;;;;;;;14.73;13.13;;;24.00;91.00;;;;;;4111600;34;20412;-41
2021/04/02 11:42:25;;;;;;;16.87;13.00;;;24.00;91.10;;;;;;4100922;34;20673;-41
2021/04/02 11:44:53;;;;;;;14.73;13.33;;;24.00;91.10;;;;;;4111933;34;20453;-41
2021/04/02 11:47:20;;;;;;;14.87;13.37;;;24.00;91.10;;;;;;4112435;34;20644;-42
2021/04/02 11:49:46;;;;;;;16.33;14.67;;;24.00;91.00;;;;;;4113213;34;20699;-41
2021/04/02 11:52:12;;;;;;;14.40;13.10;;;24.00;91.10;;;;;;4114542;34;20522;-41
2021/04/02 11:54:39;;;;;;;15.50;13.90;;;24.00;91.10;;;;;;4113993;34;20397;-41
2021/04/02 11:57:07;;;;;;;17.73;13.90;;;24.00;91.10;;;;;;4114158;34;20494;-41
2021/04/02 11:59:33;;;;;;;14.37;13.00;;;24.00;91.10;;;;;;4115152;34;20416;-41
2021/04/02 12:02:01;;;;;;;13.73;12.60;;;24.00;91.40;;;;;;4112710;34;20740;-41
2021/04/02 12:04:27;;;;;;;14.63;13.27;;;24.00;91.00;;;;;;4099782;34;20653;-41
2021/04/02 12:06:54;;;;;;;13.90;12.80;;;24.00;91.00;;;;;;4111193;34;20438;-41
2021/04/02 12:09:20;;;;;;;14.00;12.70;;;24.00;91.00;;;;;;4108894;34;20692;-41
2021/04/02 12:11:48;;;;;;;12.90;11.90;;;24.00;91.00;;;;;;4112323;34;20412;-41
2021/04/02 12:14:15;;;;;;;14.80;13.40;;;24.00;91.10;;;;;;4114901;34;20440;-41
2021/04/02 12:16:42;;;;;;;13.77;12.73;;;24.00;91.10;;;;;;4114270;34;20395;-41
2021/04/02 12:19:09;;;;;;;14.57;13.07;;;24.00;91.10;;;;;;4115819;34;20409;-40
2021/04/02 12:21:36;;;;;;;14.43;13.13;;;24.00;91.10;;;;;;4115481;34;20452;-41
2021/04/02 12:24:03;;;;;;;14.13;12.73;;;23.90;91.00;;;;;;4114453;34;20421;-41
2021/04/02 12:26:30;;;;;;;13.67;12.47;;;24.00;91.10;;;;;;4112581;34;20454;-42
2021/04/02 12:28:57;;;;;;;14.93;13.60;;;24.00;91.10;;;;;;4111968;34;20419;-41
2021/04/02 12:31:23;;;;;;;13.53;12.13;;;23.90;91.10;;;;;;4112527;34;20433;-42
2021/04/02 12:33:49;;;;;;;14.43;13.30;;;23.90;91.10;;;;;;4113406;34;20438;-41
2021/04/02 12:36:17;;;;;;;14.63;13.07;;;23.90;91.10;;;;;;4112455;34;20461;-42
2021/04/02 12:38:44;;;;;;;13.50;12.37;;;23.90;91.10;;;;;;4113066;34;20669;-41
2021/04/02 12:41:10;;;;;;;14.57;13.37;;;23.90;91.10;;;;;;4111675;34;20376;-41
2021/04/02 12:43:37;;;;;;;13.03;11.93;;;23.90;91.10;;;;;;4099810;34;20416;-41
2021/04/02 12:46:04;;;;;;;14.10;12.23;;;23.90;91.10;;;;;;4112101;34;20595;-41
2021/04/02 12:48:31;;;;;;;14.70;13.30;;;23.90;91.20;;;;;;4111100;34;20396;-41
2021/04/02 12:50:59;;;;;;;14.97;13.30;;;23.90;91.20;;;;;;4112929;34;20435;-42
2021/04/02 12:53:30;;;;;;;13.50;12.17;;;23.90;91.20;;;;;;4113397;34;20421;-42
2021/04/02 12:56:00;;;;;;;13.83;12.73;;;23.90;91.20;;;;;;4113475;34;20407;-41
2021/04/02 12:58:26;;;;;;;12.70;11.83;;;23.90;91.20;;;;;;4112349;34;20424;-41
2021/04/02 13:00:53;;;;;;;13.30;12.23;;;23.90;91.20;;;;;;4110745;34;20446;-40
2021/04/02 13:03:20;;;;;;;12.73;11.80;;;23.90;91.20;;;;;;4112318;34;20459;-42
2021/04/02 13:05:47;;;;;;;13.43;12.23;;;23.80;91.20;;;;;;4113119;34;20435;-42
2021/04/02 13:08:14;;;;;;;13.43;12.40;;;23.80;91.20;;;;;;4112515;34;20513;-41
2021/04/02 13:10:42;;;;;;;13.57;12.37;;;23.80;91.20;;;;;;4111225;34;20424;-41
2021/04/02 13:13:08;;;;;;;15.73;12.80;;;23.80;91.20;;;;;;4112356;34;20645;-41
2021/04/02 13:15:35;;;;;;;13.10;12.10;;;23.80;91.20;;;;;;4112217;34;20543;-42
2021/04/02 13:18:03;;;;;;;13.70;12.50;;;23.80;91.20;;;;;;4113357;34;20407;-41
2021/04/02 13:20:31;;;;;;;12.47;11.47;;;23.80;91.20;;;;;;4113272;34;20408;-41
2021/04/02 13:22:59;;;;;;;12.80;11.60;;;23.80;91.20;;;;;;4099682;34;20418;-41
2021/04/02 13:25:33;;;;;;;13.17;12.10;;;23.80;91.20;;;;;;4113471;34;20452;-42
2021/04/02 13:28:03;;;;;;;12.17;11.30;;;23.80;91.20;;;;;;4115141;34;20408;-43
2021/04/02 13:30:31;;;;;;;13.67;12.57;;;23.80;91.30;;;;;;4114111;34;20412;-43
2021/04/02 13:32:59;;;;;;;12.93;12.03;;;23.80;91.30;;;;;;4111923;34;20437;-41
2021/04/02 13:35:27;;;;;;;13.33;12.43;;;23.80;91.30;;;;;;4111984;34;20439;-41
2021/04/02 13:37:56;;;;;;;12.30;11.27;;;23.80;91.30;;;;;;4113380;34;20423;-42
2021/04/02 13:40:23;;;;;;;12.63;11.73;;;23.80;91.30;;;;;;4112143;34;20742;-43
2021/04/02 13:42:49;;;;;;;12.67;11.73;;;23.80;91.30;;;;;;4112521;34;20392;-41
2021/04/02 13:45:17;;;;;;;12.47;11.47;;;23.80;91.30;;;;;;4112609;34;20544;-41
2021/04/02 13:47:45;;;;;;;13.60;12.60;;;23.80;91.40;;;;;;4112745;34;20856;-41
2021/04/02 13:50:14;;;;;;;15.07;12.80;;;23.70;91.30;;;;;;4112228;34;20443;-42
2021/04/02 13:52:41;;;;;;;13.67;12.50;;;23.70;91.30;;;;;;4113568;34;20526;-42
2021/04/02 13:55:10;;;;;;;13.03;12.13;;;23.80;91.40;;;;;;4112717;34;20679;-41
2021/04/02 13:57:37;;;;;;;12.37;11.23;;;23.70;91.70;;;;;;4112146;34;20694;-42
2021/04/02 14:00:06;;;;;;;13.37;12.20;;;23.70;91.30;;;;;;4112638;34;20393;-41
2021/04/02 14:02:41;;;;;;;12.50;11.43;;;23.70;91.30;;;;;;4111999;34;20727;-41
2021/04/02 14:05:09;;;;;;;12.80;11.90;;;23.70;91.40;;;;;;4112776;34;20418;-42
2021/04/02 14:07:36;;;;;;;12.93;11.93;;;23.70;91.30;;;;;;4111482;34;20621;-42
2021/04/02 14:10:06;;;;;;;13.93;12.73;;;23.70;91.40;;;;;;4112276;34;20616;-42
2021/04/02 14:12:32;;;;;;;12.80;11.90;;;23.70;91.40;;;;;;4099826;34;20413;-42
2021/04/02 14:14:58;;;;;;;13.67;12.17;;;23.70;91.40;;;;;;4112132;34;20616;-41
2021/04/02 14:17:25;;;;;;;12.20;11.30;;;23.70;91.40;;;;;;4111599;34;20548;-41
2021/04/02 14:19:53;;;;;;;12.27;11.27;;;23.70;91.40;;;;;;4111343;34;20739;-42
2021/04/02 14:22:19;;;;;;;13.50;12.37;;;23.70;91.40;;;;;;4111859;34;20877;-42
2021/04/02 14:24:45;;;;;;;13.00;12.10;;;23.60;91.40;;;;;;4110507;34;20488;-42
2021/04/02 14:27:12;;;;;;;12.80;11.80;;;23.60;91.40;;;;;;4111205;34;20774;-42
2021/04/02 14:29:39;;;;;;;12.13;11.37;;;23.60;91.40;;;;;;4110140;34;20724;-42
2021/04/02 14:32:06;;;;;;;13.13;12.20;;;23.70;91.40;;;;;;4111638;34;20427;-41
2021/04/02 14:34:33;;;;;;;12.70;11.70;;;23.70;91.50;;;;;;4112608;34;20583;-41
2021/04/02 14:37:01;;;;;;;12.80;11.77;;;23.60;91.40;;;;;;4112571;34;20794;-42
2021/04/02 14:39:27;;;;;;;13.33;12.43;;;23.60;91.40;;;;;;4100071;34;20599;-42
2021/04/02 14:41:55;;;;;;;12.30;11.40;;;23.60;91.40;;;;;;4113259;34;20636;-43
2021/04/02 14:44:21;;;;;;;12.87;12.03;;;23.60;91.40;;;;;;4112508;34;20591;-41
2021/04/02 14:46:48;;;;;;;13.37;12.47;;;23.60;91.40;;;;;;4111789;34;20400;-41
2021/04/02 14:49:14;;;;;;;13.00;12.00;;;23.60;91.50;;;;;;4111824;34;20409;-41
2021/04/02 14:51:41;;;;;;;12.43;11.40;;;23.60;91.50;;;;;;4114307;34;20756;-41
2021/04/02 14:54:08;;;;;;;12.40;11.57;;;23.60;91.50;;;;;;4114785;34;20416;-42
2021/04/02 14:56:35;;;;;;;12.47;11.57;;;23.60;91.50;;;;;;4112769;34;20415;-41
2021/04/02 14:59:02;;;;;;;12.17;11.37;;;23.60;91.50;;;;;;4113890;34;20491;-41
2021/04/02 15:01:28;;;;;;;13.20;12.20;;;23.60;91.50;;;;;;4101388;34;20408;-41
2021/04/02 15:03:55;;;;;;;13.30;12.10;;;23.60;91.50;;;;;;4113345;34;20413;-43
2021/04/02 15:06:21;;;;;;;12.60;11.80;;;23.60;91.50;;;;;;4113257;34;20415;-42
2021/04/02 15:08:48;;;;;;;12.03;11.20;;;23.60;91.50;;;;;;4113034;34;20763;-42
2021/04/02 15:11:15;;;;;;;12.03;11.30;;;23.50;91.50;;;;;;4113892;34;20678;-41
2021/04/02 15:13:42;;;;;;;12.00;11.00;;;23.60;91.50;;;;;;4114762;34;20434;-41
2021/04/02 15:16:08;;;;;;;12.37;11.57;;;23.60;91.50;;;;;;4113521;34;20678;-41
2021/04/02 15:18:35;;;;;;;12.77;11.93;;;23.60;91.50;;;;;;4114736;34;20408;-41
2021/04/02 15:21:01;;;;;;;12.60;11.70;;;23.50;91.50;;;;;;4113646;34;20412;-41
2021/04/02 15:23:28;;;;;;;11.80;11.00;;;23.50;91.50;;;;;;4113684;34;20533;-41
2021/04/02 15:25:55;;;;;;;11.90;11.10;;;23.50;91.50;;;;;;4113854;34;20516;-42
2021/04/02 15:28:22;;;;;;;12.23;11.33;;;23.50;91.60;;;;;;4114383;34;20403;-42
2021/04/02 15:30:48;;;;;;;13.07;12.07;;;23.50;91.60;;;;;;4112072;34;20495;-42
2021/04/02 15:33:15;;;;;;;12.33;11.53;;;23.50;91.60;;;;;;4110324;34;20935;-41
2021/04/02 15:35:42;;;;;;;13.00;12.10;;;23.50;91.60;;;;;;4110999;34;20533;-43
2021/04/02 15:38:08;;;;;;;12.60;11.57;;;23.50;91.60;;;;;;4109726;34;20430;-41
2021/04/02 15:40:34;;;;;;;12.33;11.43;;;23.50;91.60;;;;;;4111387;34;20420;-41
2021/04/02 15:43:02;;;;;;;12.40;11.43;;;23.50;91.70;;;;;;4109565;34;20676;-42
2021/04/02 15:45:29;;;;;;;12.37;11.30;;;23.40;91.60;;;;;;4111274;34;20432;-43
2021/04/02 15:47:56;;;;;;;11.93;11.07;;;23.50;91.70;;;;;;4112740;34;20409;-41
2021/04/02 15:50:24;;;;;;;12.17;11.30;;;23.50;91.70;;;;;;4112946;34;20412;-41
2021/04/02 15:52:51;;;;;;;12.37;11.47;;;23.40;91.60;;;;;;4098473;34;20465;-41
2021/04/02 15:55:19;;;;;;;12.53;11.73;;;23.50;91.70;;;;;;4112226;34;20689;-42
2021/04/02 15:57:46;;;;;;;12.20;11.40;;;23.50;91.70;;;;;;4113333;34;20441;-42
2021/04/02 16:00:16;;;;;;;12.67;11.73;;;23.40;91.60;;;;;;4111852;34;20438;-42
2021/04/02 16:02:44;;;;;;;12.50;11.60;;;23.50;91.70;;;;;;4113144;34;20625;-41
2021/04/02 16:05:12;;;;;;;12.43;11.43;;;23.50;91.70;;;;;;4112827;34;20380;-42
2021/04/02 16:07:40;;;;;;;12.00;11.30;;;23.40;91.70;;;;;;4111744;34;20726;-41
2021/04/02 16:10:11;;;;;;;11.50;10.70;;;23.40;91.70;;;;;;4109979;34;20797;-41
2021/04/02 16:12:38;;;;;;;12.77;11.87;;;23.40;91.70;;;;;;4112667;34;20524;-40
2021/04/02 16:15:06;;;;;;;11.87;11.07;;;23.40;91.70;;;;;;4114411;34;20742;-41
2021/04/02 16:17:33;;;;;;;11.20;10.57;;;23.40;91.70;;;;;;4114068;34;20454;-43
2021/04/02 16:20:00;;;;;;;11.93;11.10;;;23.40;91.70;;;;;;4112209;34;20692;-41
2021/04/02 16:22:27;;;;;;;12.37;11.63;;;23.40;91.70;;;;;;4112604;34;20795;-41
2021/04/02 16:24:54;;;;;;;12.60;11.70;;;23.40;91.70;;;;;;4100313;34;20436;-41
2021/04/02 16:27:22;;;;;;;12.07;11.00;;;23.40;91.70;;;;;;4099094;34;20644;-42
2021/04/02 16:29:49;;;;;;;12.43;11.57;;;23.40;91.70;;;;;;4110997;34;20527;-41
2021/04/02 16:32:16;;;;;;;12.00;11.17;;;23.40;91.70;;;;;;4112241;34;20798;-41
2021/04/02 16:34:42;;;;;;;12.30;11.33;;;23.40;91.70;;;;;;4111653;34;20412;-41
2021/04/02 16:37:09;;;;;;;12.43;11.60;;;23.40;91.70;;;;;;4099730;34;20949;-42
2021/04/02 16:39:36;;;;;;;11.70;11.00;;;23.40;91.80;;;;;;4112750;34;20403;-41
2021/04/02 16:42:04;;;;;;;11.57;10.97;;;23.40;92.10;;;;;;4112435;34;20534;-42
2021/04/02 16:44:30;;;;;;;11.27;10.53;;;23.30;91.80;;;;;;4112336;34;20521;-40
2021/04/02 16:46:57;;;;;;;12.17;11.27;;;23.40;91.80;;;;;;4113450;34;20403;-41
2021/04/02 16:49:23;;;;;;;11.07;10.37;;;23.40;91.80;;;;;;4113742;34;20510;-41
2021/04/02 16:51:50;;;;;;;13.57;12.53;;;23.40;91.80;;;;;;4113260;34;20435;-43
2021/04/02 16:54:17;;;;;;;11.70;11.00;;;23.30;91.80;;;;;;4112806;34;20427;-43
2021/04/02 16:56:44;;;;;;;11.87;11.10;;;23.30;91.70;;;;;;4112524;34;20747;-41
2021/04/02 16:59:11;;;;;;;11.43;10.73;;;23.30;91.80;;;;;;4112877;34;20401;-41
2021/04/02 17:01:38;;;;;;;10.93;10.23;;;23.30;91.80;;;;;;4113541;34;20515;-43
2021/04/02 17:04:04;;;;;;;11.33;10.47;;;23.40;91.80;;;;;;4113300;34;20396;-42
2021/04/02 17:06:31;;;;;;;11.40;10.70;;;23.30;91.80;;;;;;4114025;34;20403;-41
2021/04/02 17:08:57;;;;;;;11.70;10.60;;;23.30;91.80;;;;;;4113232;34;20897;-41
2021/04/02 17:11:25;;;;;;;12.03;11.23;;;23.30;91.80;;;;;;4115130;34;20412;-41
2021/04/02 17:13:52;;;;;;;12.10;11.17;;;23.30;91.80;;;;;;4114943;34;20449;-41
2021/04/02 17:16:19;;;;;;;12.03;11.20;;;23.30;91.80;;;;;;4113897;34;20431;-42
2021/04/02 17:18:46;;;;;;;11.13;10.53;;;23.30;91.80;;;;;;4113821;34;20737;-41
2021/04/02 17:21:12;;;;;;;11.60;10.67;;;23.30;91.80;;;;;;4113741;34;20521;-42
2021/04/02 17:23:39;;;;;;;11.93;11.13;;;23.30;91.80;;;;;;4114443;34;20869;-41
2021/04/02 17:26:06;;;;;;;11.53;10.63;;;23.30;91.80;;;;;;4113711;34;20429;-41
2021/04/02 17:28:35;;;;;;;11.33;10.67;;;23.30;91.80;;;;;;4102524;34;20391;-43
2021/04/02 17:31:02;;;;;;;10.93;10.23;;;23.30;91.80;;;;;;4113140;34;20841;-43
2021/04/02 17:33:28;;;;;;;11.20;10.60;;;23.30;91.80;;;;;;4112962;34;20419;-43
2021/04/02 17:35:55;;;;;;;12.23;11.43;;;23.30;91.80;;;;;;4112386;34;20426;-41
2021/04/02 17:38:22;;;;;;;11.07;10.47;;;23.30;91.90;;;;;;4112144;34;20414;-41
2021/04/02 17:40:49;;;;;;;11.00;10.40;;;23.30;91.90;;;;;;4100953;34;20394;-42
2021/04/02 17:43:16;;;;;;;11.47;10.90;;;23.30;91.90;;;;;;4111383;34;20812;-42
2021/04/02 17:45:43;;;;;;;11.00;10.40;;;23.30;91.90;;;;;;4112161;34;20431;-41